Time;durP1;ratioP1;P1;durP2;ratioP2;P2;SDS_P1;SDS_P2;PMS_P1;PMS_P2;Temp;Humidity;BMP_temperature;BMP_pressure;BME280_temperature;BME280_humidity;BME280_pressure;Samples;Min_cycle;Max_cycle;Signal;HPM_P1;HPM_P2
2022/10/07 00:00:16;;;;;;;21.73;5.93;;;;;;;-145.18;100.00;46679.94;6183376;23;20510;-73
2022/10/07 00:02:42;;;;;;;15.60;4.93;;;;;;;-145.18;100.00;46679.94;6182629;23;20446;-72
2022/10/07 00:05:07;;;;;;;14.73;5.40;;;;;;;-145.18;100.00;46676.03;6183586;23;20024;-73
2022/10/07 00:07:33;;;;;;;15.47;5.70;;;;;;;-145.18;100.00;46681.88;6182989;23;20235;-73
2022/10/07 00:09:58;;;;;;;22.23;5.77;;;;;;;-145.18;100.00;46676.03;6183554;23;20017;-73
2022/10/07 00:12:24;;;;;;;20.97;5.83;;;;;;;-145.18;100.00;46677.97;6182775;23;20020;-73
2022/10/07 00:14:49;;;;;;;20.77;5.40;;;;;;;-145.18;100.00;46677.97;6183653;23;20009;-73
2022/10/07 00:17:15;;;;;;;18.67;5.53;;;;;;;-145.18;100.00;46674.06;6182768;23;20262;-73
2022/10/07 00:19:40;;;;;;;19.20;5.20;;;;;;;-145.18;100.00;46672.13;6183462;23;20009;-74
2022/10/07 00:22:05;;;;;;;19.23;5.07;;;;;;;-145.18;100.00;46677.97;6182889;23;20062;-73
2022/10/07 00:24:31;;;;;;;16.97;5.27;;;;;;;-145.18;100.00;46676.03;6156851;23;20012;-73
2022/10/07 00:26:56;;;;;;;17.63;5.20;;;;;;;-145.18;100.00;46674.06;6182974;23;20012;-73
2022/10/07 00:29:21;;;;;;;16.00;5.30;;;;;;;-145.18;100.00;46672.13;6182940;23;20013;-72
2022/10/07 00:31:47;;;;;;;16.60;5.23;;;;;;;-145.18;100.00;46672.13;6182909;23;20020;-73
2022/10/07 00:34:12;;;;;;;19.53;5.23;;;;;;;-145.18;100.00;46672.13;6183110;23;20013;-73
2022/10/07 00:36:38;;;;;;;24.20;5.27;;;;;;;-145.18;100.00;46676.03;6182718;23;20092;-72
2022/10/07 00:39:07;;;;;;;18.97;5.07;;;;;;;-145.18;100.00;46666.25;6183151;23;20211;-73
2022/10/07 00:41:36;;;;;;;23.77;6.57;;;;;;;-145.18;100.00;46672.13;6182591;23;20603;-73
2022/10/07 00:44:30;;;;;;;18.57;5.03;;;;;;;-145.18;100.00;46674.06;6183240;23;20254;-73
2022/10/07 00:47:11;;;;;;;22.20;5.50;;;;;;;-145.18;100.00;46672.13;6182611;23;20227;-74
2022/10/07 00:49:51;;;;;;;19.73;5.23;;;;;;;-145.18;100.00;46670.16;6183023;23;20227;-73
2022/10/07 00:52:19;;;;;;;20.10;6.03;;;;;;;-145.18;100.00;46672.13;6182357;23;20230;-73
2022/10/07 00:54:46;;;;;;;15.43;4.90;;;;;;;-145.18;100.00;46668.22;6183166;23;20254;-73
2022/10/07 00:57:11;;;;;;;18.30;5.30;;;;;;;-145.18;100.00;46670.16;6182570;23;20234;-73
2022/10/07 00:59:38;;;;;;;23.20;5.50;;;;;;;-145.18;100.00;46670.16;6183356;23;20227;-73
2022/10/07 01:02:05;;;;;;;17.87;5.03;;;;;;;-145.18;100.00;46662.34;6181787;23;20073;-73
2022/10/07 01:04:31;;;;;;;21.53;5.43;;;;;;;-145.18;100.00;46672.13;6182562;23;20238;-72
2022/10/07 01:06:56;;;;;;;22.83;5.57;;;;;;;-145.18;100.00;46668.22;6182471;23;20242;-73
2022/10/07 01:09:22;;;;;;;19.33;5.97;;;;;;;-145.18;100.00;46670.16;6182785;23;20032;-72
2022/10/07 01:12:00;;;;;;;20.80;5.13;;;;;;;-145.18;100.00;46672.13;6182355;23;20032;-72
2022/10/07 01:14:35;;;;;;;20.20;5.07;;;;;;;-145.18;100.00;46672.13;6182903;23;20027;-73
2022/10/07 01:17:09;;;;;;;21.93;5.33;;;;;;;-145.18;100.00;46664.31;6182470;23;20254;-73
2022/10/07 01:19:55;;;;;;;22.67;5.90;;;;;;;-145.18;100.00;46670.16;6182532;23;20223;-73
2022/10/07 01:22:21;;;;;;;;;;;;;;;-145.18;100.00;46668.22;6182364;23;20223;-73
2022/10/07 01:25:11;;;;;;;18.17;5.60;;;;;;;-145.18;100.00;46668.22;6183013;23;19971;-73
2022/10/07 01:27:42;;;;;;;28.27;6.00;;;;;;;-145.18;100.00;46668.22;6182473;23;20004;-72
2022/10/07 01:30:08;;;;;;;18.33;6.07;;;;;;;-145.18;100.00;46670.16;6182741;23;20302;-73
2022/10/07 01:32:43;;;;;;;20.93;6.40;;;;;;;-145.18;100.00;46662.34;6181733;23;20219;-73
2022/10/07 01:35:17;;;;;;;16.77;5.80;;;;;;;-145.18;100.00;46668.22;6182981;23;20285;-73
2022/10/07 01:37:48;;;;;;;20.47;6.40;;;;;;;-145.18;100.00;46666.25;6182420;23;20231;-73
2022/10/07 01:40:18;;;;;;;20.00;5.53;;;;;;;-145.18;100.00;46664.31;6182711;23;20357;-73
2022/10/07 01:42:44;;;;;;;28.77;7.20;;;;;;;-145.18;100.00;46662.34;6182472;23;20289;-72
2022/10/07 01:45:13;;;;;;;20.47;6.03;;;;;;;-145.18;100.00;46666.25;6182965;23;20227;-73
2022/10/07 01:47:39;;;;;;;18.07;4.97;;;;;;;-145.18;100.00;46664.31;6182340;23;20215;-73
2022/10/07 01:50:14;;;;;;;17.93;5.73;;;;;;;-145.18;100.00;46658.44;6182611;23;20266;-73
2022/10/07 01:53:11;;;;;;;23.35;5.40;;;;;;;-145.18;100.00;46662.34;6182275;23;20454;-74
2022/10/07 01:55:47;;;;;;;25.63;5.87;;;;;;;-145.18;100.00;46662.34;6182425;23;20011;-73
2022/10/07 01:58:37;;;;;;;14.43;5.78;;;;;;;-145.18;100.00;46660.41;6181647;23;20235;-73
2022/10/07 02:03:56;;;;;;;24.38;6.55;;;;;;;-145.18;100.00;46656.50;6199136;22;20285;-72
2022/10/07 02:06:27;;;;;;;22.10;5.93;;;;;;;-145.18;100.00;46660.41;6212605;23;20012;-72
2022/10/07 02:08:54;;;;;;;19.10;5.77;;;;;;;-145.18;100.00;46662.34;6211572;23;20335;-72
2022/10/07 02:11:24;;;;;;;22.37;5.90;;;;;;;-145.18;100.00;46656.50;6212335;23;20230;-72
2022/10/07 02:14:04;;;;;;;19.07;6.43;;;;;;;-145.18;100.00;46662.34;6213059;23;20571;-72
2022/10/07 02:16:42;;;;;;;25.30;5.27;;;;;;;-145.18;100.00;46662.34;6214336;23;20578;-72
2022/10/07 02:19:36;;;;;;;23.80;6.77;;;;;;;-145.18;100.00;46662.34;6214463;23;20264;-72
2022/10/07 02:22:03;;;;;;;19.53;5.20;;;;;;;-145.18;100.00;46658.44;6210744;23;20592;-71
2022/10/07 02:24:32;;;;;;;21.53;5.60;;;;;;;-145.18;100.00;46662.34;6214471;23;20236;-72
2022/10/07 02:27:01;;;;;;;21.30;5.83;;;;;;;-145.18;100.00;46664.31;6213612;23;20222;-72
2022/10/07 02:29:31;;;;;;;26.83;5.67;;;;;;;-145.18;100.00;46660.41;6214547;23;20223;-72
2022/10/07 02:32:00;;;;;;;21.87;4.77;;;;;;;-145.18;100.00;46666.25;6213839;23;20277;-72
2022/10/07 02:34:28;;;;;;;18.20;5.00;;;;;;;-145.18;100.00;46660.41;6214922;23;20361;-72
2022/10/07 02:36:59;;;;;;;22.67;5.30;;;;;;;-145.18;100.00;46658.44;6214002;23;20611;-72
2022/10/07 02:39:26;;;;;;;22.50;5.57;;;;;;;-145.18;100.00;46658.44;6214629;23;20223;-72
2022/10/07 02:42:15;;;;;;;18.47;4.70;;;;;;;-145.18;100.00;46664.31;6213723;23;20227;-72
2022/10/07 02:44:46;;;;;;;15.20;5.00;;;;;;;-145.18;100.00;46664.31;6214619;23;20227;-72
2022/10/07 02:47:38;;;;;;;21.57;6.13;;;;;;;-145.18;100.00;46660.41;6214095;23;20238;-72
2022/10/07 02:50:09;;;;;;;26.43;7.03;;;;;;;-145.18;100.00;46658.44;6214185;23;20309;-71
2022/10/07 02:52:37;;;;;;;17.03;5.40;;;;;;;-145.18;100.00;46662.34;6186952;23;20671;-71
2022/10/07 02:55:07;;;;;;;26.03;6.23;;;;;;;-145.18;100.00;46668.22;6214290;23;20703;-72
2022/10/07 02:57:40;;;;;;;18.07;4.83;;;;;;;-145.18;100.00;46662.34;6213627;23;20333;-72
2022/10/07 03:00:06;;;;;;;25.63;5.60;;;;;;;-145.18;100.00;46660.41;6214278;23;20793;-72
2022/10/07 03:02:54;;;;;;;19.67;5.77;;;;;;;-145.18;100.00;46658.44;6213225;23;20250;-71
2022/10/07 03:05:21;;;;;;;24.17;6.37;;;;;;;-145.18;100.00;46658.44;6214251;23;20226;-71
2022/10/07 03:07:48;;;;;;;17.43;5.43;;;;;;;-145.18;100.00;46658.44;6213403;23;20226;-71
2022/10/07 03:10:15;;;;;;;27.50;6.13;;;;;;;-145.18;100.00;46656.50;6214169;23;20226;-72
2022/10/07 03:12:41;;;;;;;24.40;5.60;;;;;;;-145.18;100.00;46656.50;6213482;23;20265;-71
2022/10/07 03:15:07;;;;;;;14.63;4.90;;;;;;;-145.18;100.00;46656.50;6214191;23;20336;-72
2022/10/07 03:17:32;;;;;;;22.33;5.77;;;;;;;-145.18;100.00;46662.34;6213876;23;20226;-72
2022/10/07 03:19:58;;;;;;;21.10;4.80;;;;;;;-145.18;100.00;46658.44;6213671;23;20787;-71
2022/10/07 03:22:23;;;;;;;17.53;4.83;;;;;;;-145.18;100.00;46660.41;6213227;23;20008;-72
2022/10/07 03:24:49;;;;;;;24.80;4.73;;;;;;;-145.18;100.00;46658.44;6213759;23;20044;-71
2022/10/07 03:27:14;;;;;;;23.17;5.23;;;;;;;-145.18;100.00;46654.53;6213210;23;20365;-72
2022/10/07 03:29:40;;;;;;;14.37;4.90;;;;;;;-145.18;100.00;46664.31;6213884;23;20378;-72
2022/10/07 03:32:05;;;;;;;18.73;5.40;;;;;;;-145.18;100.00;46660.41;6213396;23;20519;-71
2022/10/07 03:34:31;;;;;;;23.20;4.80;;;;;;;-145.18;100.00;46658.44;6213505;23;20437;-71
2022/10/07 03:36:56;;;;;;;19.00;4.40;;;;;;;-145.18;100.00;46650.63;6213289;23;20017;-71
2022/10/07 03:39:22;;;;;;;24.47;6.23;;;;;;;-145.18;100.00;46662.34;6213837;23;20012;-71
2022/10/07 03:41:48;;;;;;;23.40;5.33;;;;;;;-145.18;100.00;46654.53;6212997;23;20063;-71
2022/10/07 03:44:14;;;;;;;19.63;4.90;;;;;;;-145.18;100.00;46658.44;6214127;23;20005;-71
2022/10/07 03:46:39;;;;;;;20.23;5.23;;;;;;;-145.18;100.00;46654.53;6213354;23;20313;-71
2022/10/07 03:49:05;;;;;;;16.73;5.40;;;;;;;-145.18;100.00;46660.41;6212925;23;20001;-71
2022/10/07 03:51:30;;;;;;;21.77;5.07;;;;;;;-145.18;100.00;46660.41;6213759;23;20009;-72
2022/10/07 03:53:57;;;;;;;22.97;5.07;;;;;;;-145.18;100.00;46656.50;6212838;23;20005;-71
2022/10/07 03:56:22;;;;;;;24.23;4.93;;;;;;;-145.18;100.00;46660.41;6213050;23;20024;-72
2022/10/07 03:58:48;;;;;;;21.87;6.20;;;;;;;-145.18;100.00;46660.41;6212498;23;20317;-71
2022/10/07 04:01:14;;;;;;;19.17;5.83;;;;;;;-145.18;100.00;46658.44;6213018;23;20405;-72
2022/10/07 04:03:40;;;;;;;25.30;5.47;;;;;;;-145.18;100.00;46660.41;6212137;23;20017;-71
2022/10/07 04:06:05;;;;;;;18.17;4.80;;;;;;;-145.18;100.00;46656.50;6213594;23;20229;-72
2022/10/07 04:08:32;;;;;;;24.23;4.47;;;;;;;-145.18;100.00;46656.50;6212787;23;20160;-71
2022/10/07 04:10:58;;;;;;;15.10;4.60;;;;;;;-145.18;100.00;46654.53;6212779;23;20013;-71
2022/10/07 04:13:25;;;;;;;18.13;5.03;;;;;;;-145.18;100.00;46658.44;6212698;23;20287;-71
2022/10/07 04:15:50;;;;;;;25.07;4.47;;;;;;;-145.18;100.00;46658.44;6208880;23;20238;-71
2022/10/07 04:18:16;;;;;;;25.60;4.97;;;;;;;-145.18;100.00;46658.44;6212614;23;20238;-71
2022/10/07 04:20:41;;;;;;;22.17;4.23;;;;;;;-145.18;100.00;46652.59;6212837;23;20019;-71
2022/10/07 04:23:06;;;;;;;14.07;4.40;;;;;;;-145.18;100.00;46654.53;6212771;23;20009;-72
2022/10/07 04:25:36;;;;;;;25.53;5.73;;;;;;;-145.18;100.00;46652.59;6186023;23;20017;-72
2022/10/07 04:28:04;;;;;;;23.53;5.17;;;;;;;-145.18;100.00;46660.41;6212706;23;19996;-71
2022/10/07 04:30:33;;;;;;;20.73;4.50;;;;;;;-145.18;100.00;46654.53;6186583;23;20254;-71
2022/10/07 04:33:02;;;;;;;18.00;5.33;;;;;;;-145.18;100.00;46654.53;6211089;23;20250;-71
2022/10/07 04:35:28;;;;;;;19.57;4.67;;;;;;;-145.18;100.00;46658.44;6209922;23;20703;-72
2022/10/07 04:37:54;;;;;;;23.50;4.10;;;;;;;-145.18;100.00;46656.50;6212567;23;20234;-72
2022/10/07 04:40:21;;;;;;;20.50;5.33;;;;;;;-145.18;100.00;46654.53;6212849;23;20222;-72
2022/10/07 04:45:36;;;;;;;16.20;4.47;;;;;;;-145.18;100.00;46658.44;6213244;23;20233;-71
2022/10/07 04:48:04;;;;;;;23.60;4.73;;;;;;;-145.18;100.00;46658.44;6212384;23;20246;-71
2022/10/07 04:50:31;;;;;;;23.73;5.10;;;;;;;-145.18;100.00;46656.50;6212944;23;20288;-71
2022/10/07 04:52:57;;;;;;;21.70;4.20;;;;;;;-145.18;100.00;46650.63;6212053;23;20226;-71
2022/10/07 04:55:23;;;;;;;22.17;4.30;;;;;;;-145.18;100.00;46654.53;6212908;23;20381;-71
2022/10/07 04:57:48;;;;;;;16.47;3.97;;;;;;;-145.18;100.00;46654.53;6212354;23;20427;-71
2022/10/07 05:00:14;;;;;;;22.87;3.90;;;;;;;-145.18;100.00;46652.59;6213183;23;20012;-71
2022/10/07 05:02:40;;;;;;;17.23;4.70;;;;;;;-145.18;100.00;46650.63;6211952;23;20500;-71
2022/10/07 05:05:06;;;;;;;20.83;4.37;;;;;;;-145.18;100.00;46654.53;6213611;23;20028;-71
2022/10/07 05:07:31;;;;;;;22.23;4.20;;;;;;;-145.18;100.00;46656.50;6212179;23;20342;-71
2022/10/07 05:09:57;;;;;;;19.13;4.17;;;;;;;-145.18;100.00;46654.53;6212314;23;20035;-71
2022/10/07 05:12:24;;;;;;;22.83;4.30;;;;;;;-145.18;100.00;46648.69;6212415;23;20044;-71
2022/10/07 05:14:50;;;;;;;24.87;5.00;;;;;;;-145.18;100.00;46650.63;6212484;23;20016;-72
2022/10/07 05:17:15;;;;;;;21.87;4.30;;;;;;;-145.18;100.00;46654.53;6211705;23;20564;-71
2022/10/07 05:19:40;;;;;;;25.17;5.20;;;;;;;-145.18;100.00;46654.53;6213079;23;20005;-71
2022/10/07 05:22:06;;;;;;;18.63;4.13;;;;;;;-145.18;100.00;46652.59;6212626;23;20016;-71
2022/10/07 05:24:31;;;;;;;26.17;4.77;;;;;;;-145.18;100.00;46652.59;6213366;23;20008;-72
2022/10/07 05:26:57;;;;;;;23.97;5.90;;;;;;;-145.18;100.00;46654.53;6212750;23;20009;-71
2022/10/07 05:29:23;;;;;;;22.90;5.43;;;;;;;-145.18;100.00;46652.59;6212522;23;20008;-71
2022/10/07 05:31:48;;;;;;;25.10;4.77;;;;;;;-145.18;100.00;46652.59;6213038;23;20039;-71
2022/10/07 05:34:15;;;;;;;19.47;4.70;;;;;;;-145.18;100.00;46656.50;6212907;23;20505;-71
2022/10/07 05:36:41;;;;;;;24.10;5.30;;;;;;;-145.18;100.00;46654.53;6212868;23;20030;-71
2022/10/07 05:39:07;;;;;;;20.13;4.00;;;;;;;-145.18;100.00;46648.69;6212609;23;20241;-71
2022/10/07 05:41:33;;;;;;;16.77;4.10;;;;;;;-145.18;100.00;46656.50;6213131;23;20625;-71
2022/10/07 05:43:59;;;;;;;26.03;4.70;;;;;;;-145.18;100.00;46648.69;6212459;23;20312;-71
2022/10/07 05:46:24;;;;;;;22.27;4.47;;;;;;;-145.18;100.00;46656.50;6213398;23;20013;-72
2022/10/07 05:48:52;;;;;;;24.90;4.67;;;;;;;-145.18;100.00;46650.63;6212408;23;20467;-71
2022/10/07 05:51:22;;;;;;;39.77;6.13;;;;;;;-145.18;100.00;46652.59;6212793;23;20010;-71
2022/10/07 05:53:47;;;;;;;23.97;4.23;;;;;;;-145.18;100.00;46652.59;6212097;23;20321;-72
2022/10/07 05:56:15;;;;;;;19.47;5.10;;;;;;;-145.18;100.00;46652.59;6212731;23;20262;-72
2022/10/07 05:58:41;;;;;;;31.97;4.40;;;;;;;-145.18;100.00;46652.59;6212083;23;20385;-72
2022/10/07 06:01:12;;;;;;;19.40;4.07;;;;;;;-145.18;100.00;46650.63;6211816;23;20234;-72
2022/10/07 06:03:38;;;;;;;21.73;4.30;;;;;;;-145.18;100.00;46652.59;6212141;23;20099;-72
2022/10/07 06:06:03;;;;;;;29.30;5.50;;;;;;;-145.18;100.00;46658.44;6212666;23;20262;-72
2022/10/07 06:08:29;;;;;;;23.23;4.07;;;;;;;-145.18;100.00;46654.53;6212289;23;20009;-72
2022/10/07 06:13:47;;;;;;;18.90;3.67;;;;;;;-145.18;100.00;46654.53;6211973;23;20078;-72
2022/10/07 06:16:12;;;;;;;16.77;3.60;;;;;;;-145.18;100.00;46658.44;6212874;23;20223;-72
2022/10/07 06:18:38;;;;;;;18.60;4.03;;;;;;;-145.18;100.00;46656.50;6212083;23;20269;-72
2022/10/07 06:21:04;;;;;;;23.53;4.93;;;;;;;-145.18;100.00;46652.59;6212412;23;20032;-72
2022/10/07 06:23:31;;;;;;;24.60;4.73;;;;;;;-145.18;100.00;46656.50;6211976;23;20016;-72
2022/10/07 06:26:02;;;;;;;20.10;3.73;;;;;;;-145.18;100.00;46654.53;6212340;23;20249;-72
2022/10/07 06:28:35;;;;;;;19.70;3.93;;;;;;;-145.18;100.00;46652.59;6212008;23;20316;-72
2022/10/07 06:31:10;;;;;;;28.60;4.33;;;;;;;-145.18;100.00;46648.69;6212441;23;20226;-72
2022/10/07 06:33:36;;;;;;;23.30;4.60;;;;;;;-145.18;100.00;46652.59;6212081;23;20231;-72
2022/10/07 06:36:06;;;;;;;22.70;4.50;;;;;;;-145.18;100.00;46654.53;6212080;23;20241;-72
2022/10/07 06:38:32;;;;;;;25.50;4.03;;;;;;;-145.18;100.00;46658.44;6211670;23;20005;-72
2022/10/07 06:40:58;;;;;;;19.47;4.83;;;;;;;-145.18;100.00;46658.44;6212090;23;20227;-72
2022/10/07 06:43:25;;;;;;;21.20;3.73;;;;;;;-145.18;100.00;46658.44;6212024;23;20414;-72
2022/10/07 06:45:50;;;;;;;18.30;4.27;;;;;;;-145.18;100.00;46658.44;6212370;23;20237;-71
2022/10/07 06:48:16;;;;;;;18.70;3.90;;;;;;;-145.18;100.00;46654.53;6212358;23;20222;-72
2022/10/07 06:50:49;;;;;;;19.60;4.00;;;;;;;-145.18;100.00;46658.44;6211375;23;20013;-72
2022/10/07 06:53:15;;;;;;;20.37;3.77;;;;;;;-145.18;100.00;46660.41;6212148;23;20004;-71
2022/10/07 06:55:40;;;;;;;15.73;3.50;;;;;;;-145.18;100.00;46660.41;6211176;23;20257;-72
2022/10/07 06:58:05;;;;;;;25.70;4.53;;;;;;;-145.18;100.00;46664.31;6212192;23;20004;-71
2022/10/07 07:00:31;;;;;;;23.20;4.30;;;;;;;-145.18;100.00;46660.41;6214352;23;20011;-72
2022/10/07 07:03:00;;;;;;;20.30;3.93;;;;;;;-145.18;100.00;46664.31;6213352;23;20092;-72
2022/10/07 07:05:36;;;;;;;19.50;4.03;;;;;;;-145.18;100.00;46662.34;6214315;23;20095;-71
2022/10/07 07:08:02;;;;;;;18.63;4.23;;;;;;;-145.18;100.00;46656.50;6213622;23;20556;-71
2022/10/07 07:10:27;;;;;;;21.80;4.07;;;;;;;-145.18;100.00;46664.31;6214468;23;20288;-71
2022/10/07 07:12:53;;;;;;;20.83;4.47;;;;;;;-145.18;100.00;46660.41;6213788;23;20430;-71
2022/10/07 07:15:20;;;;;;;22.73;5.03;;;;;;;-145.18;100.00;46662.34;6214682;23;20009;-72
2022/10/07 07:17:45;;;;;;;14.13;4.53;;;;;;;-145.18;100.00;46666.25;6213653;23;20303;-71
2022/10/07 07:20:12;;;;;;;18.77;3.93;;;;;;;-145.18;100.00;46662.34;6214466;23;20329;-72
2022/10/07 07:22:37;;;;;;;14.30;3.77;;;;;;;-145.18;100.00;46664.31;6214613;23;20066;-72
2022/10/07 07:25:03;;;;;;;22.40;4.87;;;;;;;-145.18;100.00;46660.41;6214580;23;20610;-71
2022/10/07 07:27:28;;;;;;;27.00;5.20;;;;;;;-145.18;100.00;46666.25;6214065;23;20004;-72
2022/10/07 07:29:54;;;;;;;16.93;3.80;;;;;;;-145.18;100.00;46660.41;6213540;23;20028;-72
2022/10/07 07:32:19;;;;;;;28.30;5.27;;;;;;;-145.18;100.00;46664.31;6214447;23;20055;-72
2022/10/07 07:34:45;;;;;;;19.40;5.03;;;;;;;-145.18;100.00;46664.31;6213887;23;20094;-72
2022/10/07 07:37:10;;;;;;;21.87;4.87;;;;;;;-145.18;100.00;46666.25;6214196;23;20042;-72
2022/10/07 07:39:36;;;;;;;22.20;4.20;;;;;;;-145.18;100.00;46668.22;6214189;23;20008;-72
2022/10/07 07:42:02;;;;;;;23.87;5.60;;;;;;;-145.18;100.00;46666.25;6214228;23;20016;-72
2022/10/07 07:44:28;;;;;;;22.33;4.37;;;;;;;-145.18;100.00;46670.16;6214061;23;20013;-72
2022/10/07 07:46:54;;;;;;;25.13;5.43;;;;;;;-145.18;100.00;46664.31;6213416;23;20341;-72
2022/10/07 07:49:21;;;;;;;25.07;5.20;;;;;;;-145.18;100.00;46670.16;6213756;23;20477;-72
2022/10/07 07:51:47;;;;;;;24.93;5.13;;;;;;;-145.18;100.00;46670.16;6213099;23;20586;-72
2022/10/07 07:54:14;;;;;;;20.03;4.90;;;;;;;-145.18;100.00;46677.97;6213918;23;20242;-72
2022/10/07 07:56:39;;;;;;;25.93;4.27;;;;;;;-145.18;100.00;46672.13;6214065;23;20011;-72
2022/10/07 07:59:05;;;;;;;23.67;4.67;;;;;;;-145.18;100.00;46676.03;6213109;23;20628;-72
2022/10/07 08:01:31;;;;;;;26.73;5.37;;;;;;;-145.18;100.00;46672.13;6213664;23;20004;-71
2022/10/07 08:03:57;;;;;;;22.60;5.20;;;;;;;-145.18;100.00;46672.13;6212655;23;20269;-71
2022/10/07 08:06:26;;;;;;;17.13;4.50;;;;;;;-145.18;100.00;46679.94;6213844;23;20008;-72
2022/10/07 08:08:53;;;;;;;22.70;4.63;;;;;;;-145.18;100.00;46666.25;6213123;23;20540;-72
2022/10/07 08:11:19;;;;;;;31.80;5.30;;;;;;;-145.18;100.00;46674.06;6213656;23;20273;-71
2022/10/07 08:13:45;;;;;;;25.53;5.33;;;;;;;-145.18;100.00;46676.03;6213084;23;20050;-72
2022/10/07 08:16:14;;;;;;;24.60;5.13;;;;;;;-145.18;100.00;46674.06;6213776;23;20329;-72
2022/10/07 08:18:45;;;;;;;26.97;4.97;;;;;;;-145.18;100.00;46677.97;6213163;23;20007;-72
2022/10/07 08:21:11;;;;;;;20.40;5.10;;;;;;;-145.18;100.00;46672.13;6214060;23;20389;-71
2022/10/07 08:23:38;;;;;;;19.27;4.93;;;;;;;-145.18;100.00;46677.97;6212771;23;20234;-72
2022/10/07 08:26:05;;;;;;;21.97;5.30;;;;;;;-145.18;100.00;46674.06;6213721;23;20031;-72
2022/10/07 08:28:31;;;;;;;26.53;4.80;;;;;;;-145.18;100.00;46676.03;6213107;23;20256;-72
2022/10/07 08:31:27;;;;;;;22.00;4.93;;;;;;;-145.18;100.00;46674.06;6212653;23;20258;-72
2022/10/07 08:33:54;;;;;;;19.17;4.50;;;;;;;-145.18;100.00;46674.06;6199430;23;20047;-71
2022/10/07 08:36:21;;;;;;;21.07;4.87;;;;;;;-145.18;100.00;46677.97;6213233;23;20004;-71
2022/10/07 08:38:48;;;;;;;25.07;4.40;;;;;;;-145.18;100.00;46672.13;6210556;23;20009;-71
2022/10/07 08:41:35;;;;;;;22.07;4.27;;;;;;;-145.18;100.00;46677.97;6213654;23;20471;-71
2022/10/07 08:44:12;;;;;;;20.30;4.60;;;;;;;-145.18;100.00;46674.06;6213078;23;20055;-72
2022/10/07 08:46:47;;;;;;;19.33;3.97;;;;;;;-145.18;100.00;46674.06;6212988;23;20066;-72
2022/10/07 08:49:16;;;;;;;20.93;4.20;;;;;;;-145.18;100.00;46672.13;6211571;23;20032;-72
2022/10/07 08:51:49;;;;;;;20.10;4.67;;;;;;;-145.18;100.00;46676.03;6212656;23;20323;-71
2022/10/07 08:54:18;;;;;;;17.30;4.07;;;;;;;-145.18;100.00;46672.13;6211109;23;20016;-72
2022/10/07 08:56:46;;;;;;;22.60;4.73;;;;;;;-145.18;100.00;46676.03;6213467;23;20062;-71
2022/10/07 08:59:20;;;;;;;18.63;4.07;;;;;;;-145.18;100.00;46676.03;6212909;23;20013;-72
2022/10/07 09:02:12;;;;;;;18.90;3.97;;;;;;;-145.18;100.00;46674.06;6213562;23;20005;-71
2022/10/07 09:04:53;;;;;;;24.33;5.40;;;;;;;-145.18;100.00;46677.97;6212177;23;20012;-72
2022/10/07 09:07:51;;;;;;;20.53;4.13;;;;;;;-145.18;100.00;46672.13;6213667;23;20008;-71
2022/10/07 09:10:36;;;;;;;17.07;3.90;;;;;;;-145.18;100.00;46679.94;6212684;23;20005;-71
2022/10/07 09:13:12;;;;;;;18.23;4.15;;;;;;;-145.18;100.00;46674.06;6212979;23;20011;-72
2022/10/07 09:15:56;;;;;;;16.50;3.78;;;;;;;-145.18;100.00;46677.97;6213530;23;20084;-72
2022/10/07 09:18:26;;;;;;;22.27;3.97;;;;;;;-145.18;100.00;46676.03;6212642;23;20001;-71
2022/10/07 09:20:54;;;;;;;13.73;3.20;;;;;;;-145.18;100.00;46677.97;6211892;23;20013;-72
2022/10/07 09:23:23;;;;;;;26.07;3.87;;;;;;;-145.18;100.00;46674.06;6211991;23;20032;-72
2022/10/07 09:25:50;;;;;;;15.57;3.00;;;;;;;-145.18;100.00;46668.22;6212430;23;20414;-72
2022/10/07 09:28:18;;;;;;;15.90;4.03;;;;;;;-145.18;100.00;46664.31;6212405;23;20019;-72
2022/10/07 09:30:44;;;;;;;18.73;4.83;;;;;;;-145.18;100.00;46658.44;6212242;23;20028;-72
2022/10/07 09:33:19;;;;;;;18.03;4.37;;;;;;;-145.18;100.00;46642.81;6212049;23;20047;-72
2022/10/07 09:35:52;;;;;;;18.87;3.30;;;;;;;-145.18;100.00;46607.66;6212851;23;20063;-72
2022/10/07 09:38:32;;;;;;;13.87;3.07;;;;;;;-145.18;100.00;46570.53;6212292;23;20032;-72
2022/10/07 09:41:34;;;;;;;17.67;3.67;;;;;;;-145.18;100.00;46564.69;6212250;23;20007;-72
2022/10/07 09:44:24;;;;;;;18.27;3.27;;;;;;;-145.18;100.00;46554.91;6178525;23;20011;-72
2022/10/07 09:46:58;;;;;;;14.90;3.47;;;;;;;-145.18;100.00;46547.09;6212178;23;20000;-72
2022/10/07 09:49:29;;;;;;;11.40;2.33;;;;;;;-145.18;100.00;46560.78;6212614;23;20008;-72
2022/10/07 09:52:13;;;;;;;21.03;3.23;;;;;;;-145.18;100.00;46564.69;6212616;23;20011;-73
2022/10/07 09:54:40;;;;;;;16.43;2.70;;;;;;;-145.18;100.00;46572.50;6211762;23;20004;-72
2022/10/07 09:57:21;;;;;;;24.63;2.90;;;;;;;-145.18;100.00;46576.41;6212374;23;20009;-72
2022/10/07 09:59:46;;;;;;;24.43;4.00;;;;;;;-145.18;100.00;46582.25;6212490;23;20514;-72
2022/10/07 10:02:12;;;;;;;17.07;4.10;;;;;;;-145.18;100.00;46578.34;6212640;23;20055;-72
2022/10/07 10:04:47;;;;;;;18.30;2.67;;;;;;;-145.18;100.00;46601.78;6212406;23;20032;-72
2022/10/07 10:07:20;;;;;;;29.98;4.25;;;;;;;-145.18;100.00;46597.88;6212681;23;20019;-72
2022/10/07 10:09:56;;;;;;;15.80;2.80;;;;;;;-145.18;100.00;46607.66;6185553;23;20311;-73
2022/10/07 10:12:23;;;;;;;14.82;3.03;;;;;;;-145.18;100.00;46601.78;6212520;23;20418;-73
2022/10/07 10:14:53;;;;;;;19.70;2.87;;;;;;;-145.18;100.00;46617.41;6211853;23;20008;-73
2022/10/07 10:17:22;;;;;;;17.60;2.80;;;;;;;-145.18;100.00;46631.09;6212322;23;20012;-72
2022/10/07 10:19:47;;;;;;;16.60;2.10;;;;;;;-145.18;100.00;46660.41;6211744;23;20426;-73
2022/10/07 10:22:28;;;;;;;20.07;2.63;;;;;;;-145.18;100.00;46685.78;6212254;23;20012;-72
2022/10/07 10:27:44;;;;;;;12.17;1.97;;;;;;;-145.18;100.00;46709.22;6212475;23;20075;-72
2022/10/07 10:30:19;;;;;;;13.23;2.60;;;;;;;-145.18;100.00;46726.81;6211715;23;20083;-72
2022/10/07 10:33:21;;;;;;;13.77;2.88;;;;;;;-145.18;100.00;46709.22;6212045;23;20444;-72
2022/10/07 10:36:11;;;;;;;15.70;2.57;;;;;;;-145.18;100.00;46810.81;6214269;23;20488;-72
2022/10/07 10:38:46;;;;;;;14.67;2.60;;;;;;;-145.18;100.00;46787.38;6213325;23;20012;-72
2022/10/07 10:41:35;;;;;;;11.60;2.10;;;;;;;-145.18;100.00;47131.19;6213183;23;20013;-72
2022/10/07 10:44:09;;;;;;;10.97;2.23;;;;;;;-145.18;100.00;47379.28;6212696;23;20075;-72
2022/10/07 10:46:43;;;;;;;14.57;2.57;;;;;;;-145.18;100.00;47320.69;6213686;23;20076;-72
2022/10/07 10:49:29;;;;;;;11.80;2.30;;;;;;;-145.18;100.00;47355.84;6213399;23;20013;-72
2022/10/07 10:52:14;;;;;;;14.37;2.83;;;;;;;-145.18;100.00;47275.75;6213860;23;20008;-72
2022/10/07 10:55:11;;;;;;;17.60;3.30;;;;;;;-145.18;100.00;47269.88;6214271;23;20249;-73
2022/10/07 10:57:42;;;;;;;15.60;2.67;;;;;;;-145.18;100.00;47289.41;6213838;23;20016;-72
2022/10/07 11:00:12;;;;;;;14.83;2.73;;;;;;;-145.18;100.00;47303.09;6213347;23;20001;-72
2022/10/07 11:02:38;;;;;;;13.83;2.30;;;;;;;-145.18;100.00;47344.13;6186967;23;20095;-72
2022/10/07 11:05:06;;;;;;;13.57;2.70;;;;;;;-145.18;100.00;47291.38;6186921;23;20051;-72
2022/10/07 11:07:41;;;;;;;17.37;2.73;;;;;;;-145.18;100.00;47301.16;6214537;23;20004;-72
2022/10/07 11:10:20;;;;;;;;;;;;;;;-145.18;100.00;47250.34;6214180;23;20450;-72
2022/10/07 11:12:59;;;;;;;15.83;2.87;;;;;;;-145.18;100.00;47199.56;6214636;23;20332;-72
2022/10/07 11:15:35;;;;;;;13.00;2.30;;;;;;;-145.18;100.00;47180.03;6213669;23;20062;-72
2022/10/07 11:18:06;;;;;;;11.43;3.03;;;;;;;-145.18;100.00;47181.97;6213648;23;20457;-72
2022/10/07 11:20:41;;;;;;;10.10;2.57;;;;;;;-145.18;100.00;47211.28;6213745;23;20008;-72
2022/10/07 11:23:20;;;;;;;18.57;3.03;;;;;;;-145.18;100.00;47205.41;6213897;23;20087;-72
2022/10/07 11:25:52;;;;;;;16.93;3.07;;;;;;;-145.18;100.00;47195.66;6214479;23;20376;-72